Time;durP1;ratioP1;P1;durP2;ratioP2;P2;SDS_P1;SDS_P2;PMS_P1;PMS_P2;Temp;Humidity;BMP_temperature;BMP_pressure;BME280_temperature;BME280_humidity;BME280_pressure;Samples;Min_cycle;Max_cycle;Signal;HPM_P1;HPM_P2
2021/12/11 00:01:51;;;;;;;41.33;23.58;;;22.60;38.30;;;;;;6164488;28;83023;-76
2021/12/11 00:04:54;;;;;;;41.63;24.77;;;22.60;38.10;;;;;;6158026;28;85966;-76
2021/12/11 00:07:54;;;;;;;39.05;23.90;;;22.60;38.20;;;;;;6157917;28;84516;-76
2021/12/11 00:10:55;;;;;;;39.65;23.45;;;22.60;38.10;;;;;;6159798;28;83248;-76
2021/12/11 00:13:56;;;;;;;40.70;23.30;;;22.60;38.00;;;;;;6165076;28;83214;-76
2021/12/11 00:16:56;;;;;;;42.65;23.88;;;22.60;38.00;;;;;;6168736;28;83159;-76
2021/12/11 00:19:56;;;;;;;33.72;21.13;;;22.60;37.80;;;;;;6166267;28;84503;-76
2021/12/11 00:22:57;;;;;;;37.13;21.92;;;22.60;38.80;;;;;;6174405;28;82683;-77
2021/12/11 00:25:58;;;;;;;36.00;20.42;;;22.60;38.70;;;;;;6162909;28;83236;-76
2021/12/11 00:28:58;;;;;;;36.72;22.73;;;22.60;39.10;;;;;;6156454;28;85152;-76
2021/12/11 00:31:59;;;;;;;35.90;21.98;;;22.60;39.20;;;;;;6168829;28;84137;-77
2021/12/11 00:34:59;;;;;;;36.35;21.95;;;22.60;38.80;;;;;;6174899;28;82989;-75
2021/12/11 00:38:00;;;;;;;34.55;20.38;;;22.60;38.50;;;;;;6166764;28;82891;-76
2021/12/11 00:41:00;;;;;;;36.70;21.95;;;22.60;39.00;;;;;;6168249;28;83436;-75
2021/12/11 00:44:01;;;;;;;37.10;21.98;;;22.60;38.90;;;;;;6165510;28;83528;-76
2021/12/11 00:47:02;;;;;;;39.60;22.75;;;22.60;38.50;;;;;;6168854;28;83350;-76
2021/12/11 00:50:02;;;;;;;41.35;22.60;;;22.50;38.60;;;;;;6173585;28;83608;-77
2021/12/11 00:53:03;;;;;;;35.45;21.63;;;22.50;38.80;;;;;;6163056;28;83062;-77
2021/12/11 00:56:03;;;;;;;33.03;20.20;;;22.60;38.30;;;;;;6169196;28;83440;-77
2021/12/11 00:59:04;;;;;;;36.65;21.40;;;22.50;38.70;;;;;;6158807;28;85879;-77
2021/12/11 01:02:04;;;;;;;33.92;20.25;;;22.50;39.00;;;;;;6157656;28;83592;-76
2021/12/11 01:05:05;;;;;;;33.40;21.08;;;22.50;38.80;;;;;;6158684;28;83163;-77
2021/12/11 01:08:05;;;;;;;36.72;21.70;;;22.50;39.10;;;;;;6159296;28;83148;-76
2021/12/11 01:11:06;;;;;;;31.88;19.40;;;22.50;38.80;;;;;;6167176;28;83200;-76
2021/12/11 01:14:14;;;;;;;34.92;20.27;;;22.50;39.00;;;;;;6172022;27;83219;-76
2021/12/11 01:17:18;;;;;;;32.67;19.83;;;22.50;38.60;;;;;;6158684;28;83263;-77
2021/12/11 01:20:18;;;;;;;33.92;20.17;;;22.50;38.50;;;;;;6156676;28;86191;-77
2021/12/11 01:26:49;;;;;;;33.08;20.05;;;22.50;38.00;;;;;;6101855;28;87660;-76
2021/12/11 01:29:50;;;;;;;32.20;19.48;;;22.50;37.80;;;;;;6171233;28;83848;-77
2021/12/11 01:32:50;;;;;;;31.75;19.65;;;22.50;37.80;;;;;;6174736;28;83052;-76
2021/12/11 01:35:51;;;;;;;37.35;21.17;;;22.50;37.90;;;;;;6161656;28;83854;-77
2021/12/11 01:38:51;;;;;;;32.42;18.70;;;22.50;37.70;;;;;;6174031;28;83410;-77
2021/12/11 01:41:52;;;;;;;34.00;19.92;;;22.50;37.70;;;;;;6173664;28;83433;-75
2021/12/11 01:44:52;;;;;;;31.70;20.10;;;22.50;37.70;;;;;;6168157;28;83112;-76
2021/12/11 01:47:53;;;;;;;31.88;19.35;;;22.50;38.60;;;;;;6167594;28;83579;-76
2021/12/11 01:50:53;;;;;;;34.30;19.95;;;22.50;37.50;;;;;;6155872;28;83273;-76
2021/12/11 01:53:55;;;;;;;31.50;19.77;;;22.50;37.80;;;;;;6163465;28;84068;-76
2021/12/11 01:56:59;;;;;;;33.00;19.52;;;22.50;37.60;;;;;;6156201;28;83446;-76
2021/12/11 02:00:00;;;;;;;31.83;19.92;;;22.50;37.60;;;;;;6155573;28;83268;-76
2021/12/11 02:03:00;;;;;;;34.17;20.38;;;22.50;37.50;;;;;;6154580;28;83261;-76
2021/12/11 02:06:01;;;;;;;33.55;20.38;;;22.50;37.50;;;;;;6174564;28;83223;-76
2021/12/11 02:09:01;;;;;;;35.13;21.13;;;22.50;37.70;;;;;;6163660;28;84169;-76
2021/12/11 02:12:02;;;;;;;28.98;18.45;;;22.50;37.60;;;;;;6156625;28;86136;-77
2021/12/11 02:15:03;;;;;;;30.90;18.92;;;22.40;38.40;;;;;;6154061;28;83447;-76
2021/12/11 02:18:08;;;;;;;30.75;19.02;;;22.50;38.40;;;;;;6155680;28;89135;-75
2021/12/11 02:21:08;;;;;;;32.90;19.92;;;22.40;38.10;;;;;;6156177;28;84496;-77
2021/12/11 02:24:09;;;;;;;30.48;18.42;;;22.40;38.30;;;;;;6158978;28;83435;-75
2021/12/11 02:27:10;;;;;;;33.65;19.58;;;22.40;38.40;;;;;;6157309;28;83559;-76
2021/12/11 02:30:15;;;;;;;32.17;20.08;;;22.40;38.30;;;;;;6159340;28;84744;-77
2021/12/11 02:33:16;;;;;;;33.38;19.83;;;22.40;38.40;;;;;;6173274;28;83383;-76
2021/12/11 02:36:17;;;;;;;31.92;19.77;;;22.40;38.30;;;;;;6173059;28;83158;-77
2021/12/11 02:39:18;;;;;;;33.70;19.98;;;22.40;38.40;;;;;;6170974;28;84158;-77
2021/12/11 02:42:19;;;;;;;34.97;20.67;;;22.40;38.50;;;;;;6174594;28;83916;-77
2021/12/11 02:45:19;;;;;;;32.38;19.85;;;22.40;38.30;;;;;;6164571;28;84407;-77
2021/12/11 02:48:20;;;;;;;37.75;22.05;;;22.40;38.90;;;;;;6166313;28;83240;-77
2021/12/11 02:51:20;;;;;;;34.97;20.48;;;22.40;38.50;;;;;;6163065;28;83001;-77
2021/12/11 02:54:21;;;;;;;35.92;20.83;;;22.40;38.20;;;;;;6165276;28;83060;-77
2021/12/11 02:57:21;;;;;;;35.53;21.00;;;22.40;38.00;;;;;;6153883;28;82903;-77
2021/12/11 03:00:22;;;;;;;34.88;20.63;;;22.40;38.00;;;;;;6155757;28;83201;-77
2021/12/11 03:03:24;;;;;;;31.35;19.40;;;22.40;38.10;;;;;;6158544;28;83231;-75
2021/12/11 03:06:27;;;;;;;36.75;20.17;;;22.40;38.00;;;;;;6160772;28;83630;-76
2021/12/11 03:09:28;;;;;;;32.60;19.08;;;22.40;38.10;;;;;;6166323;28;83161;-76
2021/12/11 03:12:28;;;;;;;35.22;20.05;;;22.40;38.50;;;;;;6173547;28;83049;-76
2021/12/11 03:15:29;;;;;;;33.90;19.45;;;22.40;38.20;;;;;;6169902;28;83247;-76
2021/12/11 03:18:29;;;;;;;31.77;19.92;;;22.40;37.80;;;;;;6165843;28;83018;-77
2021/12/11 03:21:30;;;;;;;34.80;20.73;;;22.40;37.60;;;;;;6159042;28;83003;-78
2021/12/11 03:24:33;;;;;;;35.95;21.00;;;22.50;37.30;;;;;;6158635;28;83382;-77
2021/12/11 03:27:33;;;;;;;35.63;20.67;;;22.60;37.10;;;;;;6165563;28;83428;-77
2021/12/11 03:30:34;;;;;;;31.30;19.25;;;22.60;37.00;;;;;;6171391;28;89675;-77
2021/12/11 03:33:34;;;;;;;31.85;19.45;;;22.70;36.90;;;;;;6169777;28;83696;-77
2021/12/11 03:36:35;;;;;;;36.55;20.05;;;22.80;36.90;;;;;;6168911;28;83255;-77
2021/12/11 03:39:35;;;;;;;31.13;18.65;;;22.80;37.00;;;;;;6171812;28;83825;-78
2021/12/11 03:42:36;;;;;;;33.53;19.25;;;22.90;37.00;;;;;;6169551;28;82929;-77
2021/12/11 03:45:36;;;;;;;33.58;20.25;;;22.90;37.00;;;;;;6167634;28;83125;-77
2021/12/11 03:48:37;;;;;;;37.15;21.23;;;22.90;37.00;;;;;;6167841;28;82970;-77
2021/12/11 03:51:37;;;;;;;32.47;18.83;;;23.00;36.90;;;;;;6161436;28;85066;-77
2021/12/11 03:54:38;;;;;;;34.08;20.30;;;23.00;36.80;;;;;;6162576;28;82929;-76
2021/12/11 03:57:39;;;;;;;39.35;20.55;;;23.00;36.70;;;;;;6168980;28;83471;-74
2021/12/11 04:00:39;;;;;;;33.00;19.33;;;23.10;36.60;;;;;;6170757;28;83803;-74
2021/12/11 04:03:40;;;;;;;37.97;21.20;;;23.10;36.50;;;;;;6165426;28;83130;-74
2021/12/11 04:06:40;;;;;;;36.58;21.80;;;23.10;36.40;;;;;;6160909;28;83079;-73
2021/12/11 04:09:41;;;;;;;37.13;21.48;;;23.10;36.20;;;;;;6160831;28;83021;-74
2021/12/11 04:12:41;;;;;;;35.65;20.65;;;23.10;36.10;;;;;;6159549;28;84163;-74
2021/12/11 04:15:42;;;;;;;38.42;21.02;;;23.10;36.20;;;;;;6155946;28;84440;-73
2021/12/11 04:18:42;;;;;;;35.08;20.73;;;23.20;36.20;;;;;;6158660;28;82911;-72
2021/12/11 04:21:43;;;;;;;38.63;21.13;;;23.20;36.20;;;;;;6170896;28;83085;-73
2021/12/11 04:24:43;;;;;;;35.10;20.75;;;23.20;36.20;;;;;;6162550;28;83473;-73
2021/12/11 04:27:44;;;;;;;37.45;22.02;;;23.20;36.20;;;;;;6160163;28;83547;-73
2021/12/11 04:30:45;;;;;;;40.30;21.88;;;23.20;36.20;;;;;;6187662;28;83461;-74
2021/12/11 04:33:45;;;;;;;38.00;21.85;;;23.30;36.20;;;;;;6174373;28;83188;-74
2021/12/11 04:36:46;;;;;;;36.47;19.55;;;23.20;36.10;;;;;;6174985;28;82953;-76
2021/12/11 04:39:47;;;;;;;36.40;20.58;;;23.30;36.20;;;;;;6159046;28;83071;-74
2021/12/11 04:43:00;;;;;;;34.42;20.42;;;23.20;36.10;;;;;;6158460;28;83181;-75
2021/12/11 04:46:01;;;;;;;37.17;22.00;;;23.30;36.20;;;;;;6159495;28;83116;-75
2021/12/11 04:52:16;;;;;;;42.55;23.02;;;23.30;36.20;;;;;;6159697;28;83096;-72
2021/12/11 04:55:38;;;;;;;35.78;21.80;;;23.30;36.20;;;;;;6174576;28;83756;-73
2021/12/11 05:01:53;;;;;;;35.38;20.27;;;23.30;36.60;;;;;;6164396;28;83118;-73
2021/12/11 05:11:14;;;;;;;39.92;21.42;;;23.40;36.50;;;;;;6157195;28;83483;-72
2021/12/11 05:14:15;;;;;;;36.92;20.42;;;23.40;36.40;;;;;;6162509;28;82840;-71
2021/12/11 05:17:15;;;;;;;37.60;20.90;;;23.40;36.50;;;;;;6158156;28;83456;-73
2021/12/11 05:20:16;;;;;;;37.90;21.80;;;23.40;36.50;;;;;;6156873;28;82816;-72
2021/12/11 05:23:16;;;;;;;39.00;21.90;;;23.40;36.50;;;;;;6156290;28;83345;-73
2021/12/11 05:26:18;;;;;;;36.75;20.77;;;23.40;36.50;;;;;;6152930;28;82981;-74
2021/12/11 05:29:19;;;;;;;38.05;21.33;;;23.40;36.40;;;;;;6148399;28;83889;-73
2021/12/11 05:32:19;;;;;;;40.55;21.98;;;23.40;36.40;;;;;;6156394;28;83005;-69
2021/12/11 05:35:20;;;;;;;38.40;21.40;;;23.40;36.30;;;;;;6148611;28;82910;-71
2021/12/11 05:38:20;;;;;;;37.75;21.80;;;23.40;36.30;;;;;;6138314;28;83669;-68
2021/12/11 05:41:21;;;;;;;40.08;23.42;;;23.50;36.30;;;;;;6148952;28;83027;-69
2021/12/11 05:44:21;;;;;;;41.30;22.52;;;23.50;36.30;;;;;;6156779;28;88182;-69
2021/12/11 05:47:22;;;;;;;33.90;19.15;;;23.50;36.80;;;;;;6154279;28;83172;-71
2021/12/11 05:50:22;;;;;;;27.02;15.90;;;23.30;38.30;;;;;;6154326;28;83548;-73
2021/12/11 05:53:23;;;;;;;25.15;14.70;;;23.20;39.70;;;;;;6154668;28;84421;-71
2021/12/11 05:56:24;;;;;;;24.35;13.60;;;23.20;40.70;;;;;;6154784;28;83838;-71
2021/12/11 05:59:24;;;;;;;24.38;13.38;;;23.10;41.40;;;;;;6156348;28;83251;-72
2021/12/11 06:02:25;;;;;;;23.17;14.05;;;23.10;41.90;;;;;;6155828;28;83295;-73
2021/12/11 06:05:25;;;;;;;23.55;13.68;;;23.10;42.40;;;;;;6156043;28;83156;-74
2021/12/11 06:08:26;;;;;;;20.10;11.68;;;23.00;43.10;;;;;;6154614;28;87032;-73
2021/12/11 06:11:26;;;;;;;24.63;12.85;;;23.00;43.70;;;;;;6156798;28;83057;-74
2021/12/11 06:14:27;;;;;;;20.27;10.48;;;22.90;44.10;;;;;;6155336;28;82925;-73
2021/12/11 06:17:27;;;;;;;19.88;11.50;;;22.90;44.60;;;;;;6156430;28;83321;-74
2021/12/11 06:20:28;;;;;;;17.02;10.88;;;22.90;44.70;;;;;;6156450;28;83235;-72
2021/12/11 06:23:28;;;;;;;18.17;10.50;;;22.90;45.40;;;;;;6156323;28;83772;-74
2021/12/11 06:26:29;;;;;;;18.95;10.18;;;22.90;45.80;;;;;;6154083;28;84611;-73
2021/12/11 06:29:29;;;;;;;21.95;11.57;;;22.90;46.10;;;;;;6152121;28;83419;-71
2021/12/11 06:32:30;;;;;;;21.38;11.93;;;22.90;46.00;;;;;;6146971;28;83020;-73
2021/12/11 06:35:31;;;;;;;20.33;10.75;;;22.90;46.70;;;;;;6150413;28;83776;-71
2021/12/11 06:38:31;;;;;;;19.23;11.02;;;22.90;46.80;;;;;;6157309;28;82741;-72
2021/12/11 06:41:32;;;;;;;23.13;11.82;;;22.90;47.90;;;;;;6160625;28;83632;-75
2021/12/11 06:44:32;;;;;;;20.25;11.50;;;22.80;47.00;;;;;;6151102;28;84190;-72
2021/12/11 06:47:33;;;;;;;18.98;11.10;;;22.80;47.70;;;;;;6158956;28;82936;-75
2021/12/11 06:50:33;;;;;;;24.05;12.25;;;22.80;47.60;;;;;;6159574;28;83108;-73
2021/12/11 06:53:34;;;;;;;22.92;13.18;;;22.80;47.80;;;;;;6160143;28;83051;-74
2021/12/11 06:56:34;;;;;;;23.80;12.68;;;22.80;47.70;;;;;;6160194;28;83670;-73
2021/12/11 06:59:35;;;;;;;23.95;12.93;;;22.80;48.00;;;;;;6158214;28;84508;-75
2021/12/11 07:02:35;;;;;;;24.52;13.23;;;22.80;47.90;;;;;;6150489;28;84368;-70
2021/12/11 07:05:37;;;;;;;28.40;14.57;;;22.80;47.90;;;;;;6153147;28;83111;-70
2021/12/11 07:08:38;;;;;;;25.55;14.45;;;22.80;48.30;;;;;;6142875;28;83196;-70
2021/12/11 07:11:40;;;;;;;26.02;14.88;;;22.80;48.50;;;;;;6143737;28;84156;-71
2021/12/11 07:14:41;;;;;;;29.23;14.88;;;22.80;48.90;;;;;;6158699;28;84058;-71
2021/12/11 07:17:41;;;;;;;23.83;13.45;;;22.80;48.80;;;;;;6159261;28;82945;-73
2021/12/11 07:20:42;;;;;;;23.98;13.43;;;22.90;48.90;;;;;;6158385;28;83949;-72
2021/12/11 07:23:48;;;;;;;21.65;11.55;;;22.90;49.30;;;;;;6158714;28;84216;-72
2021/12/11 07:26:49;;;;;;;;;;;22.90;49.40;;;;;;6155970;28;83505;-75
2021/12/11 07:29:50;;;;;;;21.55;11.60;;;22.90;49.40;;;;;;6164629;28;84180;-69
2021/12/11 07:32:50;;;;;;;22.65;11.85;;;22.80;49.10;;;;;;6150796;28;82850;-72
2021/12/11 07:35:51;;;;;;;20.17;11.10;;;22.90;49.20;;;;;;6159025;28;83569;-71
2021/12/11 07:38:51;;;;;;;24.15;11.30;;;22.90;49.20;;;;;;6160257;28;84399;-69
2021/12/11 07:41:52;;;;;;;20.17;10.88;;;22.90;49.10;;;;;;6159276;28;83163;-70
2021/12/11 07:44:53;;;;;;;22.63;11.20;;;22.90;49.10;;;;;;6160619;28;83633;-74
2021/12/11 07:47:53;;;;;;;20.63;10.73;;;22.90;49.20;;;;;;6157811;28;82944;-71
2021/12/11 07:50:54;;;;;;;18.65;10.38;;;22.90;49.40;;;;;;6151779;28;82767;-73
2021/12/11 07:53:54;;;;;;;18.05;9.80;;;22.90;49.20;;;;;;6158881;28;82882;-71
2021/12/11 07:56:55;;;;;;;24.02;10.95;;;22.90;49.80;;;;;;6161815;28;82949;-69
2021/12/11 07:59:55;;;;;;;17.17;9.95;;;22.90;49.30;;;;;;6154483;28;83382;-70
2021/12/11 08:02:56;;;;;;;19.83;10.02;;;22.90;49.40;;;;;;6161633;28;81912;-74
2021/12/11 08:05:56;;;;;;;16.90;9.15;;;22.80;49.60;;;;;;6159037;28;83135;-74
2021/12/11 08:08:57;;;;;;;20.33;9.95;;;22.90;50.10;;;;;;6160646;28;84020;-72
2021/12/11 08:11:57;;;;;;;16.35;10.73;;;22.90;50.00;;;;;;6148692;28;80253;-70
2021/12/11 08:14:58;;;;;;;17.65;10.68;;;22.80;49.30;;;;;;6157697;28;83553;-74
2021/12/11 08:17:59;;;;;;;24.08;12.00;;;22.80;49.20;;;;;;6157299;28;83090;-65
2021/12/11 08:20:59;;;;;;;21.00;11.80;;;22.80;48.90;;;;;;6158550;27;83850;-70
2021/12/11 08:24:04;;;;;;;23.42;11.93;;;22.80;49.10;;;;;;6158234;28;83564;-73
2021/12/11 08:27:06;;;;;;;21.23;11.50;;;22.80;49.10;;;;;;6155626;28;83457;-73
2021/12/11 08:30:09;;;;;;;24.25;11.20;;;22.80;49.10;;;;;;6156497;28;84353;-71
2021/12/11 08:33:10;;;;;;;19.65;11.70;;;22.80;49.30;;;;;;6156397;28;83265;-72
2021/12/11 08:36:10;;;;;;;18.10;10.80;;;22.70;49.20;;;;;;6157493;28;83153;-73
2021/12/11 08:39:11;;;;;;;19.02;11.00;;;22.70;48.90;;;;;;6155670;28;83572;-71
2021/12/11 08:42:11;;;;;;;21.80;10.07;;;22.70;49.10;;;;;;6160179;28;83134;-73
2021/12/11 08:45:20;;;;;;;23.88;11.90;;;22.70;49.30;;;;;;6152492;28;83114;-74
2021/12/11 08:48:21;;;;;;;18.75;9.57;;;22.70;48.70;;;;;;6140770;28;85468;-74
2021/12/11 08:51:21;;;;;;;19.63;9.85;;;22.70;49.70;;;;;;6161958;28;81591;-73
2021/12/11 08:54:22;;;;;;;16.35;9.38;;;22.70;49.60;;;;;;6163953;28;80929;-74
2021/12/11 08:57:22;;;;;;;19.20;9.98;;;22.70;49.50;;;;;;6166646;28;80638;-67
2021/12/11 09:00:23;;;;;;;14.55;8.57;;;22.70;49.30;;;;;;6157468;28;83012;-72
2021/12/11 09:03:23;;;;;;;13.00;7.45;;;22.70;49.80;;;;;;6159961;28;82907;-70
2021/12/11 09:06:26;;;;;;;15.27;8.88;;;23.00;49.20;;;;;;6158926;28;80914;-69
2021/12/11 09:09:26;;;;;;;13.65;8.77;;;23.00;48.70;;;;;;6161054;28;80577;-71
2021/12/11 09:12:28;;;;;;;17.88;8.57;;;23.00;48.60;;;;;;6153450;28;80461;-69
2021/12/11 09:15:29;;;;;;;12.63;7.38;;;23.10;48.50;;;;;;6165673;28;81040;-68
2021/12/11 09:18:29;;;;;;;16.30;8.48;;;23.00;48.10;;;;;;6163417;28;81194;-70
2021/12/11 09:21:30;;;;;;;13.60;8.07;;;23.10;48.30;;;;;;6147573;28;80285;-69
2021/12/11 09:24:31;;;;;;;14.63;8.25;;;23.00;48.20;;;;;;6145600;28;80831;-70
2021/12/11 09:27:31;;;;;;;17.48;8.65;;;23.10;48.40;;;;;;6146318;28;80109;-70
2021/12/11 09:30:32;;;;;;;14.65;8.68;;;23.10;48.40;;;;;;6146191;28;80257;-69
2021/12/11 09:33:33;;;;;;;15.45;9.23;;;23.10;48.60;;;;;;6142898;28;81532;-71
2021/12/11 09:36:34;;;;;;;16.83;8.20;;;23.10;48.80;;;;;;6144578;28;81350;-70
2021/12/11 09:39:35;;;;;;;16.63;8.32;;;23.20;48.70;;;;;;6145149;28;80537;-70
2021/12/11 09:42:35;;;;;;;13.57;8.43;;;23.20;48.70;;;;;;6149086;28;82894;-71
2021/12/11 09:45:36;;;;;;;14.98;8.82;;;23.20;48.60;;;;;;6146464;28;80461;-73
2021/12/11 09:48:39;;;;;;;13.60;8.32;;;23.20;48.60;;;;;;6146173;28;80360;-71
2021/12/11 09:51:43;;;;;;;13.27;7.90;;;23.10;48.80;;;;;;6154590;28;80833;-70
2021/12/11 09:54:44;;;;;;;13.45;7.88;;;23.10;49.20;;;;;;6162183;28;81089;-71
2021/12/11 09:57:46;;;;;;;17.33;8.48;;;23.20;49.00;;;;;;6161264;28;80470;-73
2021/12/11 10:00:46;;;;;;;16.38;8.63;;;23.20;49.20;;;;;;6159818;28;80863;-70
2021/12/11 10:03:48;;;;;;;16.70;7.90;;;23.20;49.00;;;;;;6161007;28;80496;-74
2021/12/11 10:09:58;;;;;;;14.25;8.05;;;23.20;49.20;;;;;;6154374;28;81496;-70
2021/12/11 10:12:59;;;;;;;13.80;7.90;;;23.20;50.00;;;;;;6157331;28;80506;-70
2021/12/11 10:15:59;;;;;;;14.30;7.53;;;23.20;50.60;;;;;;6152526;28;80928;-69
2021/12/11 10:19:00;;;;;;;15.35;8.00;;;23.20;51.10;;;;;;6157000;28;81222;-68
2021/12/11 10:22:01;;;;;;;16.40;8.75;;;23.20;51.50;;;;;;6158397;28;80265;-71
2021/12/11 10:25:03;;;;;;;14.35;8.57;;;23.20;52.50;;;;;;6154830;28;81229;-69
2021/12/11 10:28:03;;;;;;;16.80;8.77;;;23.20;52.70;;;;;;6155911;28;81150;-68
2021/12/11 10:31:04;;;;;;;19.05;9.75;;;23.20;53.20;;;;;;6156326;28;80760;-71
2021/12/11 10:34:04;;;;;;;21.85;11.38;;;23.20;53.20;;;;;;6156653;28;80537;-69
2021/12/11 10:37:06;;;;;;;14.68;8.95;;;23.20;52.30;;;;;;6151272;28;83105;-70
2021/12/11 10:40:07;;;;;;;16.08;10.15;;;23.20;52.90;;;;;;6156195;28;83363;-69
2021/12/11 10:43:08;;;;;;;14.90;8.80;;;23.20;54.40;;;;;;6152614;28;83001;-72
2021/12/11 10:46:08;;;;;;;18.35;10.18;;;23.20;54.70;;;;;;6191670;28;85798;-70
2021/12/11 10:49:09;;;;;;;18.20;9.98;;;23.20;55.30;;;;;;6157388;28;85547;-71
2021/12/11 10:52:09;;;;;;;17.17;10.75;;;23.20;54.40;;;;;;6152317;28;83381;-71
2021/12/11 10:55:11;;;;;;;21.20;11.90;;;23.20;54.00;;;;;;6157459;28;83349;-70
2021/12/11 10:58:14;;;;;;;22.10;11.27;;;23.30;54.00;;;;;;6155231;28;83337;-71
2021/12/11 11:01:14;;;;;;;22.80;13.32;;;23.20;53.30;;;;;;6156135;28;82789;-71
2021/12/11 11:04:15;;;;;;;18.92;11.82;;;23.30;52.70;;;;;;6154939;28;83801;-72
2021/12/11 11:07:15;;;;;;;22.20;11.70;;;23.20;52.70;;;;;;6151710;28;83063;-71
2021/12/11 11:10:16;;;;;;;19.95;12.45;;;23.30;52.00;;;;;;6144881;28;82867;-69
2021/12/11 11:13:16;;;;;;;19.98;11.70;;;23.30;52.10;;;;;;6154644;28;83675;-69
2021/12/11 11:16:17;;;;;;;21.92;12.63;;;23.30;52.20;;;;;;6155175;28;82793;-69
2021/12/11 11:19:17;;;;;;;20.05;12.32;;;23.30;52.40;;;;;;6155428;28;83246;-70
2021/12/11 11:22:18;;;;;;;21.00;11.57;;;23.30;52.20;;;;;;6151414;28;83380;-69
2021/12/11 11:25:18;;;;;;;22.13;11.68;;;23.30;51.90;;;;;;6143784;28;83117;-70
2021/12/11 11:28:19;;;;;;;22.67;13.18;;;23.30;51.60;;;;;;6148201;28;83580;-71
2021/12/11 11:31:19;;;;;;;22.08;13.02;;;23.30;50.90;;;;;;6148907;28;83586;-70
2021/12/11 11:34:20;;;;;;;22.67;12.02;;;23.30;50.50;;;;;;6146495;28;83426;-70
2021/12/11 11:37:21;;;;;;;19.58;11.00;;;23.30;50.60;;;;;;6148915;28;83149;-69
2021/12/11 11:40:21;;;;;;;17.98;11.30;;;23.30;49.80;;;;;;6151702;28;82994;-70
2021/12/11 11:43:22;;;;;;;24.67;12.32;;;23.30;50.10;;;;;;6158472;28;84112;-70
2021/12/11 11:46:24;;;;;;;20.33;11.02;;;23.30;50.70;;;;;;6159590;28;84129;-70
2021/12/11 11:49:24;;;;;;;20.40;12.32;;;23.30;49.70;;;;;;6159716;28;82644;-70
2021/12/11 11:52:25;;;;;;;20.08;12.25;;;23.30;49.80;;;;;;6160007;28;83393;-73
2021/12/11 11:55:26;;;;;;;23.73;13.15;;;23.30;49.50;;;;;;6158239;28;83537;-70
2021/12/11 11:58:27;;;;;;;20.90;12.23;;;23.30;49.00;;;;;;6157999;27;83753;-70
2021/12/11 12:01:28;;;;;;;22.63;12.90;;;23.20;49.10;;;;;;6154820;28;84350;-69
2021/12/11 12:04:29;;;;;;;22.85;13.68;;;23.20;48.80;;;;;;6150397;28;83191;-71
2021/12/11 12:07:30;;;;;;;24.02;13.15;;;23.20;48.50;;;;;;6155399;28;83036;-73
2021/12/11 12:10:30;;;;;;;22.33;13.25;;;23.20;48.40;;;;;;6155191;28;83580;-72
2021/12/11 12:13:31;;;;;;;22.52;12.05;;;23.20;48.20;;;;;;6159191;28;86968;-72
2021/12/11 12:16:32;;;;;;;27.30;12.90;;;23.20;48.20;;;;;;6158476;28;82750;-70
2021/12/11 12:19:32;;;;;;;23.67;13.18;;;23.20;47.80;;;;;;6156432;28;84126;-70
2021/12/11 12:22:33;;;;;;;23.13;11.82;;;23.20;47.90;;;;;;6158941;28;83133;-70
2021/12/11 12:25:33;;;;;;;22.27;12.90;;;23.10;47.60;;;;;;6154353;28;83124;-71
2021/12/11 12:28:34;;;;;;;19.98;11.70;;;23.10;47.40;;;;;;6149090;28;83085;-72
2021/12/11 12:31:34;;;;;;;19.65;11.32;;;23.10;47.20;;;;;;6159071;28;83718;-69
2021/12/11 12:34:35;;;;;;;20.50;11.38;;;23.10;47.70;;;;;;6154887;28;83238;-69
2021/12/11 12:37:35;;;;;;;23.80;13.30;;;23.10;47.40;;;;;;6158874;28;83642;-70
2021/12/11 12:40:36;;;;;;;27.20;13.80;;;23.10;46.90;;;;;;6157500;28;84462;-70
2021/12/11 12:46:46;;;;;;;21.15;12.38;;;23.10;46.90;;;;;;6169726;28;83837;-70
2021/12/11 12:49:47;;;;;;;24.15;14.05;;;23.00;47.20;;;;;;6155057;28;83893;-70
2021/12/11 12:52:47;;;;;;;24.27;12.60;;;23.00;46.80;;;;;;6154620;28;83073;-71
2021/12/11 12:55:48;;;;;;;27.35;13.80;;;23.00;46.90;;;;;;6157146;28;83815;-72
2021/12/11 12:58:48;;;;;;;22.27;13.10;;;23.10;47.20;;;;;;6156641;28;84137;-72
2021/12/11 13:01:49;;;;;;;24.50;13.38;;;23.10;45.40;;;;;;6148582;28;83251;-72
2021/12/11 13:04:49;;;;;;;27.05;14.38;;;23.00;45.70;;;;;;6156786;28;84349;-73
2021/12/11 13:07:50;;;;;;;23.98;13.38;;;23.00;45.50;;;;;;6146125;28;84010;-71
2021/12/11 13:10:50;;;;;;;21.10;12.20;;;23.00;45.90;;;;;;6151506;28;84118;-71
2021/12/11 13:13:51;;;;;;;19.23;11.95;;;23.00;46.50;;;;;;6153973;28;83564;-72
2021/12/11 13:16:51;;;;;;;17.85;11.70;;;23.00;46.50;;;;;;6154446;28;83147;-72
2021/12/11 13:19:52;;;;;;;19.98;11.52;;;23.00;47.10;;;;;;6151940;28;84199;-73
2021/12/11 13:22:53;;;;;;;22.92;12.75;;;23.00;47.20;;;;;;6155421;28;83086;-72
2021/12/11 13:25:53;;;;;;;17.42;10.55;;;23.00;47.20;;;;;;6155334;28;84158;-71
2021/12/11 13:28:55;;;;;;;18.42;10.77;;;23.00;47.60;;;;;;6152902;28;82856;-70
2021/12/11 13:32:00;;;;;;;17.25;9.45;;;23.10;47.70;;;;;;6155767;28;82868;-71
2021/12/11 13:35:00;;;;;;;16.77;10.48;;;23.10;48.10;;;;;;6158578;28;82841;-71
2021/12/11 13:38:01;;;;;;;22.50;11.32;;;23.10;48.20;;;;;;6156471;28;83068;-71
2021/12/11 13:41:01;;;;;;;17.95;10.38;;;23.10;48.10;;;;;;6156700;28;83072;-72
2021/12/11 13:44:02;;;;;;;16.42;9.48;;;23.00;48.00;;;;;;6156056;28;83293;-71
2021/12/11 13:47:02;;;;;;;17.35;10.00;;;23.10;48.00;;;;;;6158775;28;83017;-71
2021/12/11 13:50:03;;;;;;;17.23;9.68;;;23.00;47.70;;;;;;6155606;28;83239;-72
2021/12/11 13:53:03;;;;;;;19.50;10.52;;;23.10;47.90;;;;;;6158700;28;82901;-72
2021/12/11 13:56:04;;;;;;;17.35;10.30;;;23.00;47.90;;;;;;6154417;28;83072;-72
2021/12/11 13:59:04;;;;;;;16.70;9.82;;;23.00;48.10;;;;;;6154228;28;83549;-72
2021/12/11 14:02:05;;;;;;;17.63;10.48;;;23.00;48.10;;;;;;6157702;28;82982;-73
2021/12/11 14:05:06;;;;;;;19.65;11.70;;;23.00;48.00;;;;;;6153742;28;83300;-71
2021/12/11 14:08:09;;;;;;;32.00;13.00;;;23.00;47.80;;;;;;6153144;28;84334;-71
2021/12/11 14:11:10;;;;;;;35.03;14.93;;;23.00;47.90;;;;;;6154997;28;83286;-71
2021/12/11 14:14:10;;;;;;;39.70;15.35;;;23.00;48.00;;;;;;6155727;28;83304;-73
2021/12/11 14:17:11;;;;;;;36.47;15.57;;;23.10;48.20;;;;;;6150783;28;83299;-73
2021/12/11 14:20:11;;;;;;;36.38;14.93;;;23.10;47.90;;;;;;6152637;28;83368;-70
2021/12/11 14:23:12;;;;;;;31.27;12.95;;;23.00;47.60;;;;;;6152104;28;83215;-73
2021/12/11 14:26:12;;;;;;;29.00;13.02;;;23.10;47.00;;;;;;6153009;28;83109;-72
2021/12/11 14:29:13;;;;;;;25.10;11.55;;;23.10;46.50;;;;;;6152935;28;82700;-73
2021/12/11 14:32:14;;;;;;;31.27;13.10;;;23.00;45.90;;;;;;6152989;28;83382;-73
2021/12/11 14:35:14;;;;;;;28.23;12.65;;;23.00;45.90;;;;;;6151294;28;83205;-71
2021/12/11 14:38:15;;;;;;;26.25;11.90;;;23.00;45.50;;;;;;6151681;28;83923;-72
2021/12/11 14:41:15;;;;;;;23.80;11.77;;;23.00;45.40;;;;;;6157287;28;83164;-70
2021/12/11 14:44:20;;;;;;;22.65;11.70;;;23.00;45.20;;;;;;6151949;28;85306;-70
2021/12/11 14:47:20;;;;;;;40.67;13.82;;;23.00;44.80;;;;;;6151245;28;84318;-72
2021/12/11 14:50:21;;;;;;;21.83;11.32;;;23.00;44.50;;;;;;6152711;28;83492;-72
2021/12/11 14:53:22;;;;;;;22.35;11.57;;;22.90;44.60;;;;;;6149829;28;89676;-68
2021/12/11 14:56:27;;;;;;;22.02;12.48;;;23.00;44.70;;;;;;6140422;28;83188;-70
2021/12/11 14:59:28;;;;;;;22.45;12.32;;;22.90;44.40;;;;;;6144493;28;83269;-71
2021/12/11 15:02:28;;;;;;;26.90;14.95;;;23.00;44.50;;;;;;6151362;28;83749;-70
2021/12/11 15:05:29;;;;;;;21.17;13.00;;;22.90;43.50;;;;;;6143277;28;83532;-71
2021/12/11 15:08:29;;;;;;;26.30;14.57;;;22.90;43.50;;;;;;6148385;28;83125;-72
2021/12/11 15:11:31;;;;;;;27.08;15.25;;;23.00;43.50;;;;;;6152370;28;83300;-71
2021/12/11 15:14:32;;;;;;;23.55;14.32;;;23.00;43.10;;;;;;6148955;28;85104;-71
2021/12/11 15:17:33;;;;;;;26.10;15.13;;;23.10;44.30;;;;;;6154786;28;83291;-73
2021/12/11 15:20:33;;;;;;;23.23;13.77;;;23.20;43.00;;;;;;6153395;28;83515;-73
2021/12/11 15:23:34;;;;;;;24.77;15.50;;;23.30;43.00;;;;;;6155957;28;83084;-74
2021/12/11 15:26:37;;;;;;;25.58;15.35;;;23.30;43.00;;;;;;6151567;28;83120;-73
2021/12/11 15:29:37;;;;;;;29.05;16.23;;;23.40;42.90;;;;;;6150204;28;82880;-73
2021/12/11 15:32:38;;;;;;;24.15;14.88;;;23.40;43.00;;;;;;6157062;28;83398;-74
2021/12/11 15:35:39;;;;;;;21.88;14.15;;;23.50;42.70;;;;;;6152925;28;83744;-72
2021/12/11 15:38:40;;;;;;;23.92;15.27;;;23.50;42.50;;;;;;6157416;28;83760;-73
2021/12/11 15:41:40;;;;;;;21.75;14.20;;;23.50;42.30;;;;;;6157507;28;83902;-72